sensor_id;sensor_type;location;lat;lon;timestamp;P1;durP1;ratioP1;P2;durP2;ratioP2
51010;SDS011;37038;50.182;8.624;2023-03-04T00:01:15;39.28;;;19.48;;
51010;SDS011;37038;50.182;8.624;2023-03-04T00:04:02;34.08;;;18.92;;
51010;SDS011;37038;50.182;8.624;2023-03-04T00:06:50;38.63;;;20.27;;
51010;SDS011;37038;50.182;8.624;2023-03-04T00:09:38;37.88;;;19.50;;
51010;SDS011;37038;50.182;8.624;2023-03-04T00:12:25;36.63;;;18.77;;
51010;SDS011;37038;50.182;8.624;2023-03-04T00:15:13;41.05;;;20.35;;
51010;SDS011;37038;50.182;8.624;2023-03-04T00:18:02;42.97;;;20.58;;
51010;SDS011;37038;50.182;8.624;2023-03-04T00:20:50;44.80;;;21.05;;
51010;SDS011;37038;50.182;8.624;2023-03-04T00:23:38;45.13;;;21.73;;
51010;SDS011;37038;50.182;8.624;2023-03-04T00:26:27;45.42;;;22.58;;
51010;SDS011;37038;50.182;8.624;2023-03-04T00:29:15;45.97;;;21.90;;
51010;SDS011;37038;50.182;8.624;2023-03-04T00:32:02;51.03;;;23.73;;
51010;SDS011;37038;50.182;8.624;2023-03-04T00:34:50;49.65;;;24.48;;
51010;SDS011;37038;50.182;8.624;2023-03-04T00:37:38;51.38;;;25.13;;
51010;SDS011;37038;50.182;8.624;2023-03-04T00:40:26;50.00;;;25.70;;
51010;SDS011;37038;50.182;8.624;2023-03-04T00:43:13;53.45;;;24.23;;
51010;SDS011;37038;50.182;8.624;2023-03-04T00:46:01;57.90;;;26.30;;
51010;SDS011;37038;50.182;8.624;2023-03-04T00:48:49;52.70;;;27.17;;
51010;SDS011;37038;50.182;8.624;2023-03-04T00:51:36;58.85;;;26.35;;
51010;SDS011;37038;50.182;8.624;2023-03-04T00:54:24;55.05;;;26.92;;
51010;SDS011;37038;50.182;8.624;2023-03-04T00:57:13;53.55;;;25.77;;
51010;SDS011;37038;50.182;8.624;2023-03-04T01:00:01;63.97;;;26.77;;
51010;SDS011;37038;50.182;8.624;2023-03-04T01:02:48;60.45;;;27.90;;
51010;SDS011;37038;50.182;8.624;2023-03-04T01:05:36;59.97;;;27.80;;
51010;SDS011;37038;50.182;8.624;2023-03-04T01:08:24;55.60;;;25.02;;
51010;SDS011;37038;50.182;8.624;2023-03-04T01:11:12;47.13;;;23.45;;
51010;SDS011;37038;50.182;8.624;2023-03-04T01:14:00;46.00;;;23.73;;
51010;SDS011;37038;50.182;8.624;2023-03-04T01:16:48;49.85;;;24.45;;
51010;SDS011;37038;50.182;8.624;2023-03-04T01:19:36;48.85;;;24.08;;
51010;SDS011;37038;50.182;8.624;2023-03-04T01:22:24;47.33;;;24.75;;
51010;SDS011;37038;50.182;8.624;2023-03-04T01:25:12;46.17;;;24.23;;
51010;SDS011;37038;50.182;8.624;2023-03-04T01:27:59;46.50;;;26.35;;
51010;SDS011;37038;50.182;8.624;2023-03-04T01:30:47;52.60;;;27.80;;
51010;SDS011;37038;50.182;8.624;2023-03-04T01:33:35;48.05;;;26.08;;
51010;SDS011;37038;50.182;8.624;2023-03-04T01:36:22;51.90;;;25.88;;
51010;SDS011;37038;50.182;8.624;2023-03-04T01:39:10;47.65;;;25.15;;
51010;SDS011;37038;50.182;8.624;2023-03-04T01:41:57;48.03;;;25.90;;
51010;SDS011;37038;50.182;8.624;2023-03-04T01:44:46;48.88;;;25.23;;
51010;SDS011;37038;50.182;8.624;2023-03-04T01:47:34;49.65;;;26.40;;
51010;SDS011;37038;50.182;8.624;2023-03-04T01:50:27;52.88;;;26.27;;
51010;SDS011;37038;50.182;8.624;2023-03-04T01:53:20;55.30;;;28.13;;
51010;SDS011;37038;50.182;8.624;2023-03-04T01:56:23;53.45;;;27.70;;
51010;SDS011;37038;50.182;8.624;2023-03-04T01:59:16;51.15;;;27.83;;
51010;SDS011;37038;50.182;8.624;2023-03-04T02:02:06;48.20;;;26.83;;
51010;SDS011;37038;50.182;8.624;2023-03-04T02:04:54;50.85;;;28.55;;
51010;SDS011;37038;50.182;8.624;2023-03-04T02:07:41;55.00;;;29.08;;
51010;SDS011;37038;50.182;8.624;2023-03-04T02:10:32;55.65;;;29.02;;
51010;SDS011;37038;50.182;8.624;2023-03-04T02:13:21;50.25;;;29.55;;
51010;SDS011;37038;50.182;8.624;2023-03-04T02:16:09;52.17;;;28.90;;
51010;SDS011;37038;50.182;8.624;2023-03-04T02:18:58;51.72;;;28.95;;
51010;SDS011;37038;50.182;8.624;2023-03-04T02:21:46;48.85;;;29.48;;
51010;SDS011;37038;50.182;8.624;2023-03-04T02:24:51;47.47;;;28.88;;
51010;SDS011;37038;50.182;8.624;2023-03-04T02:27:44;50.40;;;27.95;;
51010;SDS011;37038;50.182;8.624;2023-03-04T02:30:32;53.33;;;32.17;;
51010;SDS011;37038;50.182;8.624;2023-03-04T02:33:23;50.15;;;27.60;;
51010;SDS011;37038;50.182;8.624;2023-03-04T02:36:11;46.47;;;27.00;;
51010;SDS011;37038;50.182;8.624;2023-03-04T02:39:01;46.83;;;27.42;;
51010;SDS011;37038;50.182;8.624;2023-03-04T02:41:52;45.55;;;27.38;;
51010;SDS011;37038;50.182;8.624;2023-03-04T02:44:44;48.75;;;28.45;;
51010;SDS011;37038;50.182;8.624;2023-03-04T02:47:35;47.13;;;27.38;;
51010;SDS011;37038;50.182;8.624;2023-03-04T02:50:23;45.78;;;28.52;;
51010;SDS011;37038;50.182;8.624;2023-03-04T02:53:12;46.55;;;29.05;;
51010;SDS011;37038;50.182;8.624;2023-03-04T02:56:01;47.28;;;28.10;;
51010;SDS011;37038;50.182;8.624;2023-03-04T02:58:49;47.75;;;29.17;;
51010;SDS011;37038;50.182;8.624;2023-03-04T03:01:37;50.15;;;30.40;;
51010;SDS011;37038;50.182;8.624;2023-03-04T03:04:25;52.42;;;30.35;;
51010;SDS011;37038;50.182;8.624;2023-03-04T03:07:14;54.88;;;29.83;;
51010;SDS011;37038;50.182;8.624;2023-03-04T03:10:02;50.28;;;29.40;;
51010;SDS011;37038;50.182;8.624;2023-03-04T03:12:50;55.30;;;32.13;;
51010;SDS011;37038;50.182;8.624;2023-03-04T03:15:37;50.08;;;29.98;;
51010;SDS011;37038;50.182;8.624;2023-03-04T03:18:29;49.60;;;30.33;;
51010;SDS011;37038;50.182;8.624;2023-03-04T03:21:16;48.42;;;28.67;;
51010;SDS011;37038;50.182;8.624;2023-03-04T03:24:04;47.80;;;30.02;;
51010;SDS011;37038;50.182;8.624;2023-03-04T03:26:52;52.40;;;29.48;;
51010;SDS011;37038;50.182;8.624;2023-03-04T03:29:39;53.40;;;30.20;;
51010;SDS011;37038;50.182;8.624;2023-03-04T03:32:27;48.28;;;26.88;;
51010;SDS011;37038;50.182;8.624;2023-03-04T03:35:15;57.08;;;29.17;;
51010;SDS011;37038;50.182;8.624;2023-03-04T03:38:03;56.90;;;27.98;;
51010;SDS011;37038;50.182;8.624;2023-03-04T03:40:50;59.17;;;29.75;;
51010;SDS011;37038;50.182;8.624;2023-03-04T03:43:38;54.97;;;27.98;;
51010;SDS011;37038;50.182;8.624;2023-03-04T03:46:26;58.67;;;29.90;;
51010;SDS011;37038;50.182;8.624;2023-03-04T03:49:13;54.85;;;28.52;;
51010;SDS011;37038;50.182;8.624;2023-03-04T03:52:03;54.72;;;28.95;;
51010;SDS011;37038;50.182;8.624;2023-03-04T03:54:51;56.97;;;28.42;;
51010;SDS011;37038;50.182;8.624;2023-03-04T03:57:39;59.70;;;29.52;;
51010;SDS011;37038;50.182;8.624;2023-03-04T04:00:27;60.90;;;30.17;;
51010;SDS011;37038;50.182;8.624;2023-03-04T04:03:15;51.72;;;28.30;;
51010;SDS011;37038;50.182;8.624;2023-03-04T04:06:03;58.78;;;28.02;;
51010;SDS011;37038;50.182;8.624;2023-03-04T04:08:54;61.75;;;29.02;;
51010;SDS011;37038;50.182;8.624;2023-03-04T04:11:42;60.67;;;29.33;;
51010;SDS011;37038;50.182;8.624;2023-03-04T04:14:30;59.20;;;29.80;;
51010;SDS011;37038;50.182;8.624;2023-03-04T04:17:17;55.50;;;28.88;;
51010;SDS011;37038;50.182;8.624;2023-03-04T04:20:06;61.25;;;30.50;;
51010;SDS011;37038;50.182;8.624;2023-03-04T04:22:55;59.95;;;30.58;;
51010;SDS011;37038;50.182;8.624;2023-03-04T04:25:42;51.53;;;28.65;;
51010;SDS011;37038;50.182;8.624;2023-03-04T04:28:30;56.45;;;28.38;;
51010;SDS011;37038;50.182;8.624;2023-03-04T04:31:18;58.78;;;30.48;;
51010;SDS011;37038;50.182;8.624;2023-03-04T04:34:06;60.90;;;30.42;;
51010;SDS011;37038;50.182;8.624;2023-03-04T04:36:54;55.85;;;29.45;;
51010;SDS011;37038;50.182;8.624;2023-03-04T04:39:42;53.22;;;28.90;;
51010;SDS011;37038;50.182;8.624;2023-03-04T04:42:30;58.08;;;31.30;;
51010;SDS011;37038;50.182;8.624;2023-03-04T04:45:18;51.13;;;28.52;;
51010;SDS011;37038;50.182;8.624;2023-03-04T04:48:06;54.28;;;30.40;;
51010;SDS011;37038;50.182;8.624;2023-03-04T04:50:55;49.63;;;29.08;;
51010;SDS011;37038;50.182;8.624;2023-03-04T04:53:42;55.10;;;30.08;;
51010;SDS011;37038;50.182;8.624;2023-03-04T04:56:31;50.70;;;28.30;;
51010;SDS011;37038;50.182;8.624;2023-03-04T04:59:19;48.13;;;29.98;;
51010;SDS011;37038;50.182;8.624;2023-03-04T05:02:07;44.65;;;28.98;;
51010;SDS011;37038;50.182;8.624;2023-03-04T05:04:54;48.53;;;28.13;;
51010;SDS011;37038;50.182;8.624;2023-03-04T05:07:42;41.15;;;28.77;;
51010;SDS011;37038;50.182;8.624;2023-03-04T05:10:30;43.88;;;28.42;;
51010;SDS011;37038;50.182;8.624;2023-03-04T05:13:17;45.22;;;27.38;;
51010;SDS011;37038;50.182;8.624;2023-03-04T05:16:05;49.17;;;28.92;;
51010;SDS011;37038;50.182;8.624;2023-03-04T05:18:54;42.55;;;28.63;;
51010;SDS011;37038;50.182;8.624;2023-03-04T05:21:45;46.25;;;29.48;;
51010;SDS011;37038;50.182;8.624;2023-03-04T05:24:33;44.40;;;29.30;;
51010;SDS011;37038;50.182;8.624;2023-03-04T05:27:21;54.45;;;31.38;;
51010;SDS011;37038;50.182;8.624;2023-03-04T05:30:09;55.40;;;29.30;;
51010;SDS011;37038;50.182;8.624;2023-03-04T05:32:57;59.80;;;29.20;;
51010;SDS011;37038;50.182;8.624;2023-03-04T05:35:46;61.20;;;32.92;;
51010;SDS011;37038;50.182;8.624;2023-03-04T05:38:35;61.00;;;32.33;;
51010;SDS011;37038;50.182;8.624;2023-03-04T05:41:23;64.35;;;31.77;;
51010;SDS011;37038;50.182;8.624;2023-03-04T05:44:11;58.80;;;31.63;;
51010;SDS011;37038;50.182;8.624;2023-03-04T05:47:00;45.10;;;28.98;;
51010;SDS011;37038;50.182;8.624;2023-03-04T05:49:47;42.97;;;27.80;;
51010;SDS011;37038;50.182;8.624;2023-03-04T05:52:35;45.50;;;29.33;;
51010;SDS011;37038;50.182;8.624;2023-03-04T05:55:23;43.28;;;27.27;;
51010;SDS011;37038;50.182;8.624;2023-03-04T05:58:10;43.05;;;29.02;;
51010;SDS011;37038;50.182;8.624;2023-03-04T06:00:59;45.75;;;27.38;;
51010;SDS011;37038;50.182;8.624;2023-03-04T06:03:47;42.55;;;27.20;;
51010;SDS011;37038;50.182;8.624;2023-03-04T06:06:35;42.42;;;26.15;;
51010;SDS011;37038;50.182;8.624;2023-03-04T06:09:22;42.88;;;27.10;;
51010;SDS011;37038;50.182;8.624;2023-03-04T06:12:11;39.45;;;27.63;;
51010;SDS011;37038;50.182;8.624;2023-03-04T06:15:01;43.40;;;26.48;;
51010;SDS011;37038;50.182;8.624;2023-03-04T06:17:50;38.50;;;25.25;;
51010;SDS011;37038;50.182;8.624;2023-03-04T06:20:38;43.63;;;25.63;;
51010;SDS011;37038;50.182;8.624;2023-03-04T06:23:26;38.10;;;24.92;;
51010;SDS011;37038;50.182;8.624;2023-03-04T06:26:14;39.78;;;25.20;;
51010;SDS011;37038;50.182;8.624;2023-03-04T06:29:03;41.97;;;26.27;;
51010;SDS011;37038;50.182;8.624;2023-03-04T06:31:51;42.25;;;26.10;;
51010;SDS011;37038;50.182;8.624;2023-03-04T06:34:39;40.25;;;25.23;;
51010;SDS011;37038;50.182;8.624;2023-03-04T06:37:27;42.70;;;25.48;;
51010;SDS011;37038;50.182;8.624;2023-03-04T06:40:15;38.25;;;24.50;;
51010;SDS011;37038;50.182;8.624;2023-03-04T06:43:02;44.03;;;25.67;;
51010;SDS011;37038;50.182;8.624;2023-03-04T06:45:50;39.08;;;25.20;;
51010;SDS011;37038;50.182;8.624;2023-03-04T06:48:38;47.38;;;24.35;;
51010;SDS011;37038;50.182;8.624;2023-03-04T06:51:26;47.13;;;25.52;;
51010;SDS011;37038;50.182;8.624;2023-03-04T06:54:14;33.95;;;22.35;;
51010;SDS011;37038;50.182;8.624;2023-03-04T06:57:03;38.45;;;22.75;;
51010;SDS011;37038;50.182;8.624;2023-03-04T06:59:51;42.80;;;24.38;;
51010;SDS011;37038;50.182;8.624;2023-03-04T07:02:39;42.72;;;23.33;;
51010;SDS011;37038;50.182;8.624;2023-03-04T07:05:29;43.15;;;24.33;;
51010;SDS011;37038;50.182;8.624;2023-03-04T07:08:18;37.42;;;22.80;;
51010;SDS011;37038;50.182;8.624;2023-03-04T07:11:08;42.63;;;22.88;;
51010;SDS011;37038;50.182;8.624;2023-03-04T07:13:56;38.33;;;22.88;;
51010;SDS011;37038;50.182;8.624;2023-03-04T07:16:44;36.78;;;22.38;;
51010;SDS011;37038;50.182;8.624;2023-03-04T07:19:32;38.88;;;22.80;;
51010;SDS011;37038;50.182;8.624;2023-03-04T07:22:20;40.92;;;24.45;;
51010;SDS011;37038;50.182;8.624;2023-03-04T07:25:08;39.78;;;22.58;;
51010;SDS011;37038;50.182;8.624;2023-03-04T07:28:02;38.28;;;22.23;;
51010;SDS011;37038;50.182;8.624;2023-03-04T07:30:50;38.08;;;22.35;;
51010;SDS011;37038;50.182;8.624;2023-03-04T07:33:38;38.33;;;23.15;;
51010;SDS011;37038;50.182;8.624;2023-03-04T07:36:26;40.88;;;21.08;;
51010;SDS011;37038;50.182;8.624;2023-03-04T07:39:14;36.47;;;22.35;;
51010;SDS011;37038;50.182;8.624;2023-03-04T07:42:04;40.90;;;23.23;;
51010;SDS011;37038;50.182;8.624;2023-03-04T07:44:52;39.97;;;22.85;;
51010;SDS011;37038;50.182;8.624;2023-03-04T07:47:41;34.78;;;21.73;;
51010;SDS011;37038;50.182;8.624;2023-03-04T07:50:29;40.47;;;21.70;;
51010;SDS011;37038;50.182;8.624;2023-03-04T07:53:19;36.65;;;20.88;;
51010;SDS011;37038;50.182;8.624;2023-03-04T07:56:09;45.50;;;22.55;;
51010;SDS011;37038;50.182;8.624;2023-03-04T07:59:06;37.97;;;21.73;;
51010;SDS011;37038;50.182;8.624;2023-03-04T08:01:54;34.28;;;19.85;;
51010;SDS011;37038;50.182;8.624;2023-03-04T08:04:43;34.25;;;18.83;;
51010;SDS011;37038;50.182;8.624;2023-03-04T08:07:34;34.67;;;19.05;;
51010;SDS011;37038;50.182;8.624;2023-03-04T08:10:22;36.97;;;19.42;;
51010;SDS011;37038;50.182;8.624;2023-03-04T08:13:10;36.38;;;20.02;;
51010;SDS011;37038;50.182;8.624;2023-03-04T08:15:58;35.20;;;18.45;;
51010;SDS011;37038;50.182;8.624;2023-03-04T08:18:49;36.92;;;18.35;;
51010;SDS011;37038;50.182;8.624;2023-03-04T08:21:42;33.30;;;16.77;;
51010;SDS011;37038;50.182;8.624;2023-03-04T08:24:33;38.37;;;17.70;;
51010;SDS011;37038;50.182;8.624;2023-03-04T08:27:22;38.85;;;17.63;;
51010;SDS011;37038;50.182;8.624;2023-03-04T08:30:10;34.92;;;17.42;;
51010;SDS011;37038;50.182;8.624;2023-03-04T08:32:58;35.42;;;17.92;;
51010;SDS011;37038;50.182;8.624;2023-03-04T08:35:50;44.45;;;17.40;;
51010;SDS011;37038;50.182;8.624;2023-03-04T08:38:38;28.88;;;16.80;;
51010;SDS011;37038;50.182;8.624;2023-03-04T08:41:26;36.83;;;15.18;;
51010;SDS011;37038;50.182;8.624;2023-03-04T08:44:26;33.35;;;15.68;;
51010;SDS011;37038;50.182;8.624;2023-03-04T08:51:39;28.85;;;14.85;;
51010;SDS011;37038;50.182;8.624;2023-03-04T08:55:17;30.42;;;15.15;;
51010;SDS011;37038;50.182;8.624;2023-03-04T08:59:03;30.80;;;14.75;;
51010;SDS011;37038;50.182;8.624;2023-03-04T09:02:50;39.75;;;15.52;;
51010;SDS011;37038;50.182;8.624;2023-03-04T09:05:38;36.38;;;16.05;;
51010;SDS011;37038;50.182;8.624;2023-03-04T09:08:27;33.35;;;15.45;;
51010;SDS011;37038;50.182;8.624;2023-03-04T09:11:18;28.10;;;15.82;;
51010;SDS011;37038;50.182;8.624;2023-03-04T09:14:09;29.55;;;14.00;;
51010;SDS011;37038;50.182;8.624;2023-03-04T09:16:59;28.02;;;14.32;;
51010;SDS011;37038;50.182;8.624;2023-03-04T09:19:46;29.42;;;14.80;;
51010;SDS011;37038;50.182;8.624;2023-03-04T09:22:35;27.23;;;14.20;;
51010;SDS011;37038;50.182;8.624;2023-03-04T09:25:24;29.73;;;14.43;;
51010;SDS011;37038;50.182;8.624;2023-03-04T09:28:12;28.30;;;14.20;;
51010;SDS011;37038;50.182;8.624;2023-03-04T09:31:00;28.15;;;13.48;;
51010;SDS011;37038;50.182;8.624;2023-03-04T09:33:49;28.70;;;14.10;;
51010;SDS011;37038;50.182;8.624;2023-03-04T09:36:38;32.63;;;13.63;;
51010;SDS011;37038;50.182;8.624;2023-03-04T09:39:26;29.20;;;13.38;;
51010;SDS011;37038;50.182;8.624;2023-03-04T09:42:23;26.92;;;13.35;;
51010;SDS011;37038;50.182;8.624;2023-03-04T09:45:20;34.25;;;12.63;;
51010;SDS011;37038;50.182;8.624;2023-03-04T09:48:12;28.92;;;13.80;;
51010;SDS011;37038;50.182;8.624;2023-03-04T09:51:18;27.35;;;12.32;;
51010;SDS011;37038;50.182;8.624;2023-03-04T10:00:41;25.90;;;10.95;;
51010;SDS011;37038;50.182;8.624;2023-03-04T10:03:42;24.17;;;11.00;;
51010;SDS011;37038;50.182;8.624;2023-03-04T10:06:34;33.45;;;13.00;;
51010;SDS011;37038;50.182;8.624;2023-03-04T10:09:25;25.25;;;10.77;;
51010;SDS011;37038;50.182;8.624;2023-03-04T10:12:33;32.10;;;11.32;;
51010;SDS011;37038;50.182;8.624;2023-03-04T10:18:26;27.27;;;11.13;;
51010;SDS011;37038;50.182;8.624;2023-03-04T10:21:21;28.13;;;10.55;;
51010;SDS011;37038;50.182;8.624;2023-03-04T10:24:24;24.58;;;10.23;;
51010;SDS011;37038;50.182;8.624;2023-03-04T10:27:16;22.40;;;10.70;;
51010;SDS011;37038;50.182;8.624;2023-03-04T10:30:10;23.92;;;10.50;;
51010;SDS011;37038;50.182;8.624;2023-03-04T10:33:13;17.13;;;9.63;;
51010;SDS011;37038;50.182;8.624;2023-03-04T10:39:20;20.83;;;9.50;;
51010;SDS011;37038;50.182;8.624;2023-03-04T10:45:01;21.50;;;9.73;;
51010;SDS011;37038;50.182;8.624;2023-03-04T10:47:52;18.48;;;9.40;;
51010;SDS011;37038;50.182;8.624;2023-03-04T10:50:42;21.02;;;8.77;;
51010;SDS011;37038;50.182;8.624;2023-03-04T10:53:35;19.38;;;9.82;;
51010;SDS011;37038;50.182;8.624;2023-03-04T11:02:35;19.10;;;8.57;;
51010;SDS011;37038;50.182;8.624;2023-03-04T11:05:24;25.00;;;8.98;;
51010;SDS011;37038;50.182;8.624;2023-03-04T11:08:19;22.58;;;8.43;;
51010;SDS011;37038;50.182;8.624;2023-03-04T11:11:20;18.10;;;8.02;;
51010;SDS011;37038;50.182;8.624;2023-03-04T11:17:38;15.40;;;7.50;;
51010;SDS011;37038;50.182;8.624;2023-03-04T11:21:05;22.73;;;9.30;;
51010;SDS011;37038;50.182;8.624;2023-03-04T11:23:58;17.35;;;8.10;;
51010;SDS011;37038;50.182;8.624;2023-03-04T11:26:50;19.20;;;7.70;;
51010;SDS011;37038;50.182;8.624;2023-03-04T11:29:42;19.55;;;7.47;;
51010;SDS011;37038;50.182;8.624;2023-03-04T11:32:39;27.15;;;8.88;;
51010;SDS011;37038;50.182;8.624;2023-03-04T11:35:31;13.80;;;7.78;;
51010;SDS011;37038;50.182;8.624;2023-03-04T11:38:43;14.77;;;7.63;;
51010;SDS011;37038;50.182;8.624;2023-03-04T11:41:36;14.90;;;7.53;;
51010;SDS011;37038;50.182;8.624;2023-03-04T11:44:26;14.85;;;6.05;;
51010;SDS011;37038;50.182;8.624;2023-03-04T11:50:17;15.65;;;7.00;;
51010;SDS011;37038;50.182;8.624;2023-03-04T11:56:43;18.52;;;6.00;;
51010;SDS011;37038;50.182;8.624;2023-03-04T11:59:43;11.50;;;5.85;;
51010;SDS011;37038;50.182;8.624;2023-03-04T12:09:33;13.63;;;6.03;;
51010;SDS011;37038;50.182;8.624;2023-03-04T12:34:29;9.20;;;4.72;;
51010;SDS011;37038;50.182;8.624;2023-03-04T12:41:12;13.35;;;5.05;;
51010;SDS011;37038;50.182;8.624;2023-03-04T12:44:16;8.85;;;4.97;;
51010;SDS011;37038;50.182;8.624;2023-03-04T12:53:19;9.35;;;3.95;;
51010;SDS011;37038;50.182;8.624;2023-03-04T12:56:26;14.45;;;4.35;;
51010;SDS011;37038;50.182;8.624;2023-03-04T13:15:42;7.53;;;4.32;;
51010;SDS011;37038;50.182;8.624;2023-03-04T13:18:40;7.32;;;3.80;;
51010;SDS011;37038;50.182;8.624;2023-03-04T13:21:33;7.47;;;3.75;;
51010;SDS011;37038;50.182;8.624;2023-03-04T13:24:51;10.70;;;6.55;;
51010;SDS011;37038;50.182;8.624;2023-03-04T13:27:49;15.50;;;5.15;;
51010;SDS011;37038;50.182;8.624;2023-03-04T13:34:09;9.57;;;5.68;;
51010;SDS011;37038;50.182;8.624;2023-03-04T13:37:41;10.48;;;5.40;;
51010;SDS011;37038;50.182;8.624;2023-03-04T13:44:05;8.73;;;4.90;;
51010;SDS011;37038;50.182;8.624;2023-03-04T13:47:42;14.30;;;6.65;;
51010;SDS011;37038;50.182;8.624;2023-03-04T13:50:36;12.73;;;6.10;;
51010;SDS011;37038;50.182;8.624;2023-03-04T13:53:36;8.60;;;5.95;;
51010;SDS011;37038;50.182;8.624;2023-03-04T13:56:38;10.90;;;6.50;;
51010;SDS011;37038;50.182;8.624;2023-03-04T13:59:39;13.98;;;6.18;;
51010;SDS011;37038;50.182;8.624;2023-03-04T14:02:32;10.93;;;5.90;;
51010;SDS011;37038;50.182;8.624;2023-03-04T14:05:22;14.23;;;5.72;;
51010;SDS011;37038;50.182;8.624;2023-03-04T14:08:18;13.63;;;7.93;;
51010;SDS011;37038;50.182;8.624;2023-03-04T14:11:23;9.25;;;5.45;;
51010;SDS011;37038;50.182;8.624;2023-03-04T14:14:43;15.27;;;6.25;;
51010;SDS011;37038;50.182;8.624;2023-03-04T14:17:37;9.05;;;5.82;;
51010;SDS011;37038;50.182;8.624;2023-03-04T14:26:22;12.52;;;6.20;;
51010;SDS011;37038;50.182;8.624;2023-03-04T14:29:25;12.18;;;6.70;;
51010;SDS011;37038;50.182;8.624;2023-03-04T14:32:21;15.93;;;7.53;;
51010;SDS011;37038;50.182;8.624;2023-03-04T14:41:17;14.10;;;7.03;;
51010;SDS011;37038;50.182;8.624;2023-03-04T14:50:18;13.10;;;7.18;;
51010;SDS011;37038;50.182;8.624;2023-03-04T14:53:15;9.30;;;6.72;;
51010;SDS011;37038;50.182;8.624;2023-03-04T14:56:09;13.15;;;7.18;;
51010;SDS011;37038;50.182;8.624;2023-03-04T14:58:57;10.27;;;5.78;;
51010;SDS011;37038;50.182;8.624;2023-03-04T15:01:46;14.77;;;6.35;;
51010;SDS011;37038;50.182;8.624;2023-03-04T15:04:39;12.55;;;6.90;;
51010;SDS011;37038;50.182;8.624;2023-03-04T15:07:34;12.73;;;6.55;;
51010;SDS011;37038;50.182;8.624;2023-03-04T15:10:27;12.63;;;8.30;;
51010;SDS011;37038;50.182;8.624;2023-03-04T15:13:41;11.70;;;6.45;;
51010;SDS011;37038;50.182;8.624;2023-03-04T15:16:52;15.10;;;8.23;;
51010;SDS011;37038;50.182;8.624;2023-03-04T15:19:47;7.57;;;4.95;;
51010;SDS011;37038;50.182;8.624;2023-03-04T15:25:42;14.52;;;8.68;;
51010;SDS011;37038;50.182;8.624;2023-03-04T15:28:35;7.32;;;4.95;;
51010;SDS011;37038;50.182;8.624;2023-03-04T15:31:25;8.43;;;6.25;;
51010;SDS011;37038;50.182;8.624;2023-03-04T15:34:19;8.63;;;5.20;;
51010;SDS011;37038;50.182;8.624;2023-03-04T15:37:21;10.82;;;5.38;;
51010;SDS011;37038;50.182;8.624;2023-03-04T15:40:25;13.10;;;8.73;;
51010;SDS011;37038;50.182;8.624;2023-03-04T15:43:26;9.65;;;5.25;;
51010;SDS011;37038;50.182;8.624;2023-03-04T15:46:14;6.28;;;4.60;;
51010;SDS011;37038;50.182;8.624;2023-03-04T15:49:04;6.22;;;4.28;;
51010;SDS011;37038;50.182;8.624;2023-03-04T15:51:54;8.95;;;4.50;;
51010;SDS011;37038;50.182;8.624;2023-03-04T15:54:43;4.40;;;4.00;;
51010;SDS011;37038;50.182;8.624;2023-03-04T15:57:35;10.68;;;5.40;;
51010;SDS011;37038;50.182;8.624;2023-03-04T16:00:24;12.43;;;5.82;;
51010;SDS011;37038;50.182;8.624;2023-03-04T16:03:15;8.98;;;4.72;;
51010;SDS011;37038;50.182;8.624;2023-03-04T16:06:13;7.35;;;4.72;;
51010;SDS011;37038;50.182;8.624;2023-03-04T16:09:07;10.45;;;6.38;;
51010;SDS011;37038;50.182;8.624;2023-03-04T16:19:01;6.40;;;4.80;;
51010;SDS011;37038;50.182;8.624;2023-03-04T16:21:53;7.38;;;5.00;;
51010;SDS011;37038;50.182;8.624;2023-03-04T16:24:44;7.88;;;5.60;;
51010;SDS011;37038;50.182;8.624;2023-03-04T16:27:34;7.53;;;4.90;;
51010;SDS011;37038;50.182;8.624;2023-03-04T16:30:26;7.82;;;5.20;;
51010;SDS011;37038;50.182;8.624;2023-03-04T16:33:19;10.98;;;6.15;;
51010;SDS011;37038;50.182;8.624;2023-03-04T16:39:12;11.23;;;7.55;;
51010;SDS011;37038;50.182;8.624;2023-03-04T16:42:13;20.65;;;9.90;;
51010;SDS011;37038;50.182;8.624;2023-03-04T16:45:09;19.67;;;9.50;;
51010;SDS011;37038;50.182;8.624;2023-03-04T16:48:12;18.33;;;10.63;;
51010;SDS011;37038;50.182;8.624;2023-03-04T16:51:14;20.25;;;11.13;;
51010;SDS011;37038;50.182;8.624;2023-03-04T16:54:09;16.73;;;11.35;;
51010;SDS011;37038;50.182;8.624;2023-03-04T16:57:05;20.65;;;12.13;;
51010;SDS011;37038;50.182;8.624;2023-03-04T17:00:00;21.17;;;10.77;;
51010;SDS011;37038;50.182;8.624;2023-03-04T17:02:58;17.90;;;10.90;;
51010;SDS011;37038;50.182;8.624;2023-03-04T17:06:04;17.33;;;12.75;;
51010;SDS011;37038;50.182;8.624;2023-03-04T17:08:53;25.65;;;12.30;;
51010;SDS011;37038;50.182;8.624;2023-03-04T17:11:49;23.57;;;12.43;;
51010;SDS011;37038;50.182;8.624;2023-03-04T17:14:41;19.33;;;13.82;;
51010;SDS011;37038;50.182;8.624;2023-03-04T17:17:34;22.17;;;14.52;;
51010;SDS011;37038;50.182;8.624;2023-03-04T17:20:23;21.42;;;13.27;;
51010;SDS011;37038;50.182;8.624;2023-03-04T17:23:11;20.65;;;14.25;;
51010;SDS011;37038;50.182;8.624;2023-03-04T17:26:00;22.55;;;13.65;;
51010;SDS011;37038;50.182;8.624;2023-03-04T17:32:16;22.42;;;14.75;;
51010;SDS011;37038;50.182;8.624;2023-03-04T17:35:08;25.88;;;17.35;;
51010;SDS011;37038;50.182;8.624;2023-03-04T17:37:57;24.25;;;16.05;;
51010;SDS011;37038;50.182;8.624;2023-03-04T17:40:45;23.73;;;16.10;;
51010;SDS011;37038;50.182;8.624;2023-03-04T17:43:34;23.30;;;15.10;;
51010;SDS011;37038;50.182;8.624;2023-03-04T17:46:31;21.33;;;13.75;;
51010;SDS011;37038;50.182;8.624;2023-03-04T17:49:31;19.50;;;14.32;;
51010;SDS011;37038;50.182;8.624;2023-03-04T17:52:31;21.10;;;13.52;;
51010;SDS011;37038;50.182;8.624;2023-03-04T17:55:22;18.10;;;12.50;;
51010;SDS011;37038;50.182;8.624;2023-03-04T17:58:11;20.20;;;13.23;;
51010;SDS011;37038;50.182;8.624;2023-03-04T18:01:16;19.15;;;12.63;;
51010;SDS011;37038;50.182;8.624;2023-03-04T18:04:17;22.73;;;14.82;;
51010;SDS011;37038;50.182;8.624;2023-03-04T18:07:19;25.50;;;16.13;;
51010;SDS011;37038;50.182;8.624;2023-03-04T18:10:25;24.75;;;14.90;;
51010;SDS011;37038;50.182;8.624;2023-03-04T18:13:20;26.27;;;15.57;;
51010;SDS011;37038;50.182;8.624;2023-03-04T18:16:16;19.83;;;14.90;;
51010;SDS011;37038;50.182;8.624;2023-03-04T18:19:20;24.45;;;16.10;;
51010;SDS011;37038;50.182;8.624;2023-03-04T18:22:14;26.38;;;16.02;;
51010;SDS011;37038;50.182;8.624;2023-03-04T18:25:11;25.45;;;17.05;;
51010;SDS011;37038;50.182;8.624;2023-03-04T18:28:11;25.58;;;15.90;;
51010;SDS011;37038;50.182;8.624;2023-03-04T18:31:08;24.55;;;16.70;;
51010;SDS011;37038;50.182;8.624;2023-03-04T18:34:11;29.73;;;18.58;;
51010;SDS011;37038;50.182;8.624;2023-03-04T18:37:03;26.35;;;18.30;;
51010;SDS011;37038;50.182;8.624;2023-03-04T18:39:59;25.48;;;17.20;;
51010;SDS011;37038;50.182;8.624;2023-03-04T19:09:41;32.63;;;20.90;;
51010;SDS011;37038;50.182;8.624;2023-03-04T19:12:41;40.78;;;22.65;;
51010;SDS011;37038;50.182;8.624;2023-03-04T19:15:53;41.30;;;25.13;;
51010;SDS011;37038;50.182;8.624;2023-03-04T19:18:56;39.35;;;21.90;;
51010;SDS011;37038;50.182;8.624;2023-03-04T19:21:49;31.95;;;21.25;;
51010;SDS011;37038;50.182;8.624;2023-03-04T19:24:43;35.33;;;21.77;;
51010;SDS011;37038;50.182;8.624;2023-03-04T19:27:48;28.17;;;19.55;;
51010;SDS011;37038;50.182;8.624;2023-03-04T19:31:02;35.47;;;22.27;;
51010;SDS011;37038;50.182;8.624;2023-03-04T19:34:45;30.33;;;20.55;;